createdAt,value
2019-02-17T00:04:30.476Z,4.19
2019-02-17T00:09:32.728Z,4.16
2019-02-17T00:14:34.293Z,4.10
2019-02-17T00:19:35.933Z,4.08
2019-02-17T00:24:37.581Z,4.04
2019-02-17T00:29:39.137Z,3.96
2019-02-17T00:34:40.711Z,3.88
2019-02-17T00:39:42.305Z,3.82
2019-02-17T00:44:44.006Z,3.71
2019-02-17T00:49:45.612Z,3.61
2019-02-17T00:54:47.191Z,3.52
2019-02-17T00:59:48.791Z,3.43
2019-02-17T01:04:50.333Z,3.34
2019-02-17T01:09:51.973Z,3.23
2019-02-17T01:14:54.018Z,3.14
2019-02-17T01:19:56.078Z,3.05
2019-02-17T01:24:57.716Z,2.98
2019-02-17T01:29:59.278Z,2.93
2019-02-17T01:35:00.935Z,2.93
2019-02-17T01:40:03.291Z,2.90
2019-02-17T01:45:05.469Z,2.82
2019-02-17T01:50:07.340Z,2.71
2019-02-17T01:55:09.054Z,2.61
2019-02-17T02:00:10.899Z,2.55
2019-02-17T02:05:12.464Z,2.50
2019-02-17T02:10:14.061Z,2.52
2019-02-17T02:15:15.612Z,2.53
2019-02-17T02:20:19.515Z,2.51
2019-02-17T02:25:21.101Z,2.51
2019-02-17T02:30:23.254Z,2.38
2019-02-17T02:35:24.846Z,2.42
2019-02-17T02:40:26.820Z,2.36
2019-02-17T02:45:28.382Z,2.26
2019-02-17T02:50:29.961Z,2.17
2019-02-17T02:55:31.526Z,2.12
2019-02-17T03:00:33.122Z,2.07
2019-02-17T03:05:35.488Z,2.05
2019-02-17T03:10:37.206Z,2.07
2019-02-17T03:15:38.825Z,2.14
2019-02-17T03:20:40.509Z,2.24
2019-02-17T03:25:45.171Z,2.26
2019-02-17T03:30:46.369Z,2.32
2019-02-17T03:35:48.589Z,2.30
2019-02-17T03:40:50.878Z,2.28
2019-02-17T03:45:52.543Z,2.22
2019-02-17T03:50:54.154Z,2.16
2019-02-17T03:55:56.124Z,2.14
2019-02-17T04:00:58.000Z,2.09
2019-02-17T04:05:59.595Z,2.06
2019-02-17T04:11:01.143Z,2.05
2019-02-17T04:16:02.704Z,2.08
2019-02-17T04:21:04.313Z,2.13
2019-02-17T04:26:05.857Z,2.13
2019-02-17T04:31:07.438Z,2.10
2019-02-17T04:36:09.019Z,2.08
2019-02-17T04:41:11.023Z,2.07
2019-02-17T04:46:12.623Z,2.10
2019-02-17T04:51:14.192Z,2.10
2019-02-17T04:56:16.184Z,2.13
2019-02-17T05:01:17.767Z,2.15
2019-02-17T05:06:19.433Z,2.13
2019-02-17T05:11:21.006Z,2.14
2019-02-17T05:16:22.792Z,2.14
2019-02-17T05:21:24.326Z,2.13
2019-02-17T05:26:26.267Z,2.10
2019-02-17T05:31:27.835Z,2.10
2019-02-17T05:36:29.398Z,2.06
2019-02-17T05:41:30.982Z,2.04
2019-02-17T05:46:32.934Z,2.00
2019-02-17T05:51:34.928Z,1.96
2019-02-17T05:56:36.485Z,1.97
2019-02-17T06:01:38.094Z,2.00
2019-02-17T06:06:39.646Z,2.02
2019-02-17T06:11:41.696Z,2.11
2019-02-17T06:16:43.323Z,2.12
2019-02-17T06:21:44.947Z,2.15
2019-02-17T06:26:46.555Z,2.17
2019-02-17T06:31:48.140Z,2.14
2019-02-17T06:36:49.767Z,2.07
2019-02-17T06:41:51.354Z,2.02
2019-02-17T06:46:53.014Z,2.02
2019-02-17T06:51:55.069Z,2.02
2019-02-17T06:56:56.696Z,1.95
2019-02-17T07:01:58.355Z,1.92
2019-02-17T07:07:00.315Z,1.93
2019-02-17T07:12:01.979Z,1.99
2019-02-17T07:17:03.571Z,2.05
2019-02-17T07:22:05.216Z,2.08
2019-02-17T07:27:06.782Z,2.10
2019-02-17T07:32:08.702Z,2.16
2019-02-17T07:37:10.654Z,2.22
2019-02-17T07:42:12.362Z,2.30
2019-02-17T07:47:14.397Z,2.38
2019-02-17T07:52:16.285Z,2.45
2019-02-17T07:57:17.908Z,2.51
2019-02-17T08:02:19.558Z,2.56
2019-02-17T08:07:22.089Z,2.63
2019-02-17T08:12:23.698Z,2.71
2019-02-17T08:17:25.259Z,2.82
2019-02-17T08:22:26.865Z,2.94
2019-02-17T08:27:28.497Z,3.05
2019-02-17T08:32:30.154Z,3.14
2019-02-17T08:37:32.159Z,3.24
2019-02-17T08:42:33.780Z,3.34
2019-02-17T08:47:35.367Z,3.47
2019-02-17T08:52:37.376Z,3.57
2019-02-17T08:57:39.122Z,3.70
2019-02-17T09:02:41.056Z,3.84
2019-02-17T09:07:42.665Z,4.03
2019-02-17T09:12:44.286Z,4.29
2019-02-17T09:17:46.977Z,4.57
2019-02-17T09:22:48.549Z,4.96
2019-02-17T09:27:50.129Z,5.40
2019-02-17T09:32:51.735Z,5.81
2019-02-17T09:37:53.517Z,6.18
2019-02-17T09:42:55.138Z,6.62
2019-02-17T09:47:57.153Z,7.05
2019-02-17T09:52:58.869Z,7.46
2019-02-17T09:58:00.589Z,7.76
2019-02-17T10:03:02.254Z,8.08
2019-02-17T10:08:03.891Z,8.28
2019-02-17T10:13:05.560Z,8.52
2019-02-17T10:18:07.153Z,8.88
2019-02-17T10:23:08.910Z,9.31
2019-02-17T10:28:10.518Z,9.82
2019-02-17T10:33:12.135Z,10.16
2019-02-17T10:38:14.001Z,10.46
2019-02-17T10:43:15.597Z,10.78
2019-02-17T10:48:17.241Z,11.13
2019-02-17T10:53:19.239Z,11.36
2019-02-17T10:58:20.799Z,11.53
2019-02-17T11:03:22.514Z,11.71
2019-02-17T11:08:24.103Z,11.77
2019-02-17T11:13:25.705Z,11.96
2019-02-17T11:18:27.246Z,12.04
2019-02-17T11:23:29.232Z,12.11
2019-02-17T11:28:30.949Z,12.23
2019-02-17T11:33:32.523Z,12.35
2019-02-17T11:38:34.225Z,12.46
2019-02-17T11:43:35.809Z,12.56
2019-02-17T11:48:37.783Z,12.61
2019-02-17T11:53:39.432Z,12.65
2019-02-17T11:58:41.184Z,12.88
2019-02-17T12:03:42.768Z,13.07
2019-02-17T12:08:46.091Z,13.24
2019-02-17T12:13:49.967Z,13.39
2019-02-17T12:18:51.578Z,13.53
2019-02-17T12:23:53.290Z,13.69
2019-02-17T12:28:54.900Z,13.81
2019-02-17T12:33:56.711Z,13.95
2019-02-17T12:39:00.732Z,14.06
2019-02-17T12:44:02.399Z,14.27
2019-02-17T12:49:05.552Z,14.42
2019-02-17T12:54:07.164Z,14.56
2019-02-17T12:59:08.801Z,14.69
2019-02-17T13:04:10.424Z,14.70
2019-02-17T13:09:12.064Z,14.90
2019-02-17T13:14:13.733Z,15.00
2019-02-17T13:19:15.369Z,15.04
2019-02-17T13:24:17.036Z,15.06
2019-02-17T13:29:18.614Z,15.11
2019-02-17T13:34:20.758Z,15.23
2019-02-17T13:39:22.923Z,15.26
2019-02-17T13:44:24.511Z,15.34
2019-02-17T13:49:26.115Z,15.42
2019-02-17T13:54:27.693Z,15.40
2019-02-17T13:59:29.370Z,15.40
2019-02-17T14:04:30.945Z,15.54
2019-02-17T14:09:33.440Z,15.66
2019-02-17T14:14:35.502Z,15.83
2019-02-17T14:19:37.062Z,15.90
2019-02-17T14:24:38.713Z,15.96
2019-02-17T14:29:40.411Z,15.91
2019-02-17T14:34:42.028Z,15.94
2019-02-17T14:39:43.625Z,16.00
2019-02-17T14:44:45.278Z,16.00
2019-02-17T14:49:47.465Z,16.00
2019-02-17T14:54:49.440Z,16.10
2019-02-17T14:59:51.026Z,16.11
2019-02-17T15:04:52.778Z,16.23
2019-02-17T15:09:54.370Z,16.23
2019-02-17T15:14:56.047Z,16.25
2019-02-17T15:19:57.985Z,16.21
2019-02-17T15:24:59.589Z,16.10
2019-02-17T15:30:01.307Z,15.99
2019-02-17T15:35:04.002Z,15.83
2019-02-17T15:40:06.143Z,15.74
2019-02-17T15:45:08.232Z,15.66
2019-02-17T15:50:10.988Z,15.60
2019-02-17T15:55:12.695Z,15.45
2019-02-17T16:00:14.429Z,15.33
2019-02-17T16:05:16.170Z,15.27
2019-02-17T16:10:18.150Z,15.19
2019-02-17T16:15:19.771Z,15.09
2019-02-17T16:20:21.505Z,15.02
2019-02-17T16:25:24.982Z,14.89
2019-02-17T16:30:26.578Z,14.69
2019-02-17T16:35:28.234Z,14.48
2019-02-17T16:40:29.807Z,14.29
2019-02-17T16:45:31.427Z,14.09
2019-02-17T16:50:33.021Z,13.89
2019-02-17T16:55:34.728Z,13.70
2019-02-17T17:00:36.281Z,13.53
2019-02-17T17:05:37.868Z,13.33
2019-02-17T17:10:39.668Z,13.12
2019-02-17T17:15:41.542Z,12.91
2019-02-17T17:20:44.052Z,12.77
2019-02-17T17:25:46.638Z,12.58
2019-02-17T17:30:48.272Z,12.39
2019-02-17T17:35:49.881Z,12.23
2019-02-17T17:40:52.291Z,12.03
2019-02-17T17:45:53.921Z,11.82
2019-02-17T17:50:56.089Z,11.72
2019-02-17T17:55:57.789Z,11.61
2019-02-17T18:01:00.513Z,11.39
2019-02-17T18:06:02.210Z,11.23
2019-02-17T18:11:03.840Z,11.07
2019-02-17T18:16:05.827Z,10.95
2019-02-17T18:21:07.491Z,10.85
2019-02-17T18:26:09.210Z,10.72
2019-02-17T18:31:11.228Z,10.63
2019-02-17T18:36:12.862Z,10.52
2019-02-17T18:41:16.697Z,10.37
2019-02-17T18:46:18.380Z,10.22
2019-02-17T18:51:20.094Z,10.09
2019-02-17T18:56:21.675Z,10.01
2019-02-17T19:01:23.664Z,9.89
2019-02-17T19:06:25.255Z,9.75
2019-02-17T19:11:26.982Z,9.64
2019-02-17T19:16:28.731Z,9.57
2019-02-17T19:21:30.733Z,9.44
2019-02-17T19:26:32.368Z,9.33
2019-02-17T19:31:34.029Z,9.23
2019-02-17T19:36:35.575Z,9.13
2019-02-17T19:41:37.184Z,9.04
2019-02-17T19:46:38.872Z,8.92
2019-02-17T19:51:40.483Z,8.81
2019-02-17T19:56:42.105Z,8.65
2019-02-17T20:01:43.673Z,8.56
2019-02-17T20:06:45.733Z,8.47
2019-02-17T20:11:47.367Z,8.38
2019-02-17T20:16:48.941Z,8.28
2019-02-17T20:21:50.796Z,8.17
2019-02-17T20:26:52.359Z,8.09
2019-02-17T20:31:53.934Z,8.01
2019-02-17T20:36:56.051Z,7.98
2019-02-17T20:41:58.871Z,7.92
2019-02-17T20:47:00.441Z,7.87
2019-02-17T20:52:02.003Z,7.85
2019-02-17T20:57:03.664Z,7.82
2019-02-17T21:02:05.746Z,7.82
2019-02-17T21:07:07.619Z,7.84
2019-02-17T21:12:10.517Z,7.80
2019-02-17T21:17:12.196Z,7.76
2019-02-17T21:22:13.874Z,7.72
2019-02-17T21:27:20.002Z,7.67
2019-02-17T21:32:21.636Z,7.60
2019-02-17T21:37:23.626Z,7.54
2019-02-17T21:42:25.211Z,7.51
2019-02-17T21:47:26.954Z,7.44
2019-02-17T21:52:29.024Z,7.34
2019-02-17T21:57:30.715Z,7.23
2019-02-17T22:02:32.379Z,7.10
2019-02-17T22:07:35.107Z,7.02
2019-02-17T22:12:37.077Z,6.93
2019-02-17T22:17:38.807Z,6.84
2019-02-17T22:22:40.504Z,6.79
2019-02-17T22:27:43.055Z,6.74
2019-02-17T22:32:44.614Z,6.66
2019-02-17T22:37:46.242Z,6.57
2019-02-17T22:42:48.254Z,6.47
2019-02-17T22:47:49.797Z,6.39
2019-02-17T22:52:51.529Z,6.30
2019-02-17T22:57:53.143Z,6.27
2019-02-17T23:02:55.218Z,6.23
2019-02-17T23:07:57.338Z,6.16
2019-02-17T23:12:58.978Z,6.09
2019-02-17T23:18:00.578Z,6.02
2019-02-17T23:23:02.647Z,5.96
2019-02-17T23:28:04.655Z,5.91
2019-02-17T23:33:06.215Z,5.86
2019-02-17T23:38:07.868Z,5.82
2019-02-17T23:43:09.465Z,5.76
2019-02-17T23:48:11.088Z,5.69
2019-02-17T23:53:12.657Z,5.69
2019-02-17T23:58:14.266Z,5.68
